Ana Sayfa
METAR-TAF:

METAR-TAF

Havaalanları :

Sevhac, Mısır

Enlem: 26-20-25N, Boylam: 31-44-20E, yükseklik: 70 m

Güncel hava durumu gözlemi

Rapor saat 13:00 UTC de 1 saat ve 34 dakika önce yapıldı.
Rüzgar kuzey/kuzeybatıdan 15 kt
Sıcaklık 33°C
Nem 21%
Basınç 1009 hPa
Görüş mesafesi 10 km veya daha fazla
1500 m altında bulut yok ve kümülonimbus yok

METAR: HESG 281300Z 33015KT CAVOK 33/08 Q1009

Saat: 16:34 (14:34 UTC)

Tahmin

Rapor saat 11:00 UTC de 3 saat ve 34 dakika önce yapıldı.
Ayın 28'si saat 12 UTC'den ayın 29'si saat 18 UTC'ye kadar geçerli Tahmin
Rüzgar kuzey/kuzeybatıdan 12 kt
Görüş mesafesi 10 km veya daha fazla
1500 m altında bulut yok ve kümülonimbus yok

TAF: HESG 281100Z 2812/2918 34012KT CAVOK

4.000'den fazla havaalanı için hava durumu gözlemleri ve tahminleri (METAR ve TAF raporları).

Kullanılabilir istasyonlar harita üzerinde sarı ve kırmızı noktalarla gösterilir.

İstasyonun adını görmek için fareyi noktanın üzerinde gezdirin.

Sonrasında hava gözlem ve tahminlerini görmek için tıklayın.

Haritayı değiştirmek için: yaklaştırmak için siyah artı işaretli yeşil düğmeye ve uzaklaştırmak için de eksi işaretli düğmeye hızla tıklayın; bitişik haritalar için yeşil okları kullanın.


METAR-TAF: